sensor_id;sensor_type;location;lat;lon;timestamp;temperature;humidity
44863;DHT22;30597;49.628;10.850;2022-08-04T00:01:07;27.10;44.10
44863;DHT22;30597;49.628;10.850;2022-08-04T00:03:54;27.10;44.20
44863;DHT22;30597;49.628;10.850;2022-08-04T00:06:45;27.10;44.00
44863;DHT22;30597;49.628;10.850;2022-08-04T00:09:20;27.10;44.30
44863;DHT22;30597;49.628;10.850;2022-08-04T00:11:48;27.00;44.20
44863;DHT22;30597;49.628;10.850;2022-08-04T00:14:18;27.10;44.30
44863;DHT22;30597;49.628;10.850;2022-08-04T00:16:46;27.00;44.30
44863;DHT22;30597;49.628;10.850;2022-08-04T00:19:21;27.00;44.20
44863;DHT22;30597;49.628;10.850;2022-08-04T00:21:57;27.10;44.20
44863;DHT22;30597;49.628;10.850;2022-08-04T00:24:24;27.10;44.30
44863;DHT22;30597;49.628;10.850;2022-08-04T00:26:53;27.10;44.20
44863;DHT22;30597;49.628;10.850;2022-08-04T00:29:21;27.10;44.30
44863;DHT22;30597;49.628;10.850;2022-08-04T00:31:47;27.10;44.20
44863;DHT22;30597;49.628;10.850;2022-08-04T00:34:13;27.10;44.30
44863;DHT22;30597;49.628;10.850;2022-08-04T00:36:41;27.10;44.30
44863;DHT22;30597;49.628;10.850;2022-08-04T00:39:11;27.10;44.40
44863;DHT22;30597;49.628;10.850;2022-08-04T00:42:02;27.00;44.30
44863;DHT22;30597;49.628;10.850;2022-08-04T00:44:38;27.10;44.30
44863;DHT22;30597;49.628;10.850;2022-08-04T00:47:26;27.00;44.20
44863;DHT22;30597;49.628;10.850;2022-08-04T00:52:40;27.00;44.30
44863;DHT22;30597;49.628;10.850;2022-08-04T00:55:44;27.00;44.40
44863;DHT22;30597;49.628;10.850;2022-08-04T00:58:49;27.00;44.20
44863;DHT22;30597;49.628;10.850;2022-08-04T01:04:13;27.00;44.40
44863;DHT22;30597;49.628;10.850;2022-08-04T01:06:44;27.00;44.50
44863;DHT22;30597;49.628;10.850;2022-08-04T01:17:32;27.00;44.40
44863;DHT22;30597;49.628;10.850;2022-08-04T01:30:48;27.00;44.40
44863;DHT22;30597;49.628;10.850;2022-08-04T01:33:17;27.00;44.50
44863;DHT22;30597;49.628;10.850;2022-08-04T01:35:47;27.00;44.50
44863;DHT22;30597;49.628;10.850;2022-08-04T01:38:28;27.00;44.40
44863;DHT22;30597;49.628;10.850;2022-08-04T01:40:57;27.00;44.40
44863;DHT22;30597;49.628;10.850;2022-08-04T01:43:26;27.00;44.40
44863;DHT22;30597;49.628;10.850;2022-08-04T01:46:00;27.00;44.40
44863;DHT22;30597;49.628;10.850;2022-08-04T01:48:27;27.00;44.50
44863;DHT22;30597;49.628;10.850;2022-08-04T01:50:57;27.00;44.40
44863;DHT22;30597;49.628;10.850;2022-08-04T01:53:30;27.00;44.40
44863;DHT22;30597;49.628;10.850;2022-08-04T01:55:57;26.90;44.20
44863;DHT22;30597;49.628;10.850;2022-08-04T01:58:23;27.00;44.30
44863;DHT22;30597;49.628;10.850;2022-08-04T02:03:27;27.00;44.30
44863;DHT22;30597;49.628;10.850;2022-08-04T02:06:03;27.00;44.40
44863;DHT22;30597;49.628;10.850;2022-08-04T02:09:11;27.00;44.30
44863;DHT22;30597;49.628;10.850;2022-08-04T02:11:46;27.00;44.30
44863;DHT22;30597;49.628;10.850;2022-08-04T02:14:19;27.00;44.40
44863;DHT22;30597;49.628;10.850;2022-08-04T02:17:18;27.00;44.40
44863;DHT22;30597;49.628;10.850;2022-08-04T02:20:06;26.90;44.40
44863;DHT22;30597;49.628;10.850;2022-08-04T02:22:38;26.90;44.40
44863;DHT22;30597;49.628;10.850;2022-08-04T02:25:09;26.90;44.40
44863;DHT22;30597;49.628;10.850;2022-08-04T02:27:58;26.90;44.50
44863;DHT22;30597;49.628;10.850;2022-08-04T02:30:32;26.90;44.40
44863;DHT22;30597;49.628;10.850;2022-08-04T02:33:02;26.90;44.40
44863;DHT22;30597;49.628;10.850;2022-08-04T02:35:35;26.90;44.50
44863;DHT22;30597;49.628;10.850;2022-08-04T02:38:32;26.90;44.40
44863;DHT22;30597;49.628;10.850;2022-08-04T02:41:03;26.90;44.40
44863;DHT22;30597;49.628;10.850;2022-08-04T02:43:30;26.90;44.50
44863;DHT22;30597;49.628;10.850;2022-08-04T02:45:57;26.90;44.40
44863;DHT22;30597;49.628;10.850;2022-08-04T02:48:26;26.90;44.40
44863;DHT22;30597;49.628;10.850;2022-08-04T02:50:53;26.90;44.40
44863;DHT22;30597;49.628;10.850;2022-08-04T02:53:21;26.90;44.50
44863;DHT22;30597;49.628;10.850;2022-08-04T02:55:47;26.90;44.40
44863;DHT22;30597;49.628;10.850;2022-08-04T02:58:15;26.90;44.40
44863;DHT22;30597;49.628;10.850;2022-08-04T03:00:44;26.90;44.40
44863;DHT22;30597;49.628;10.850;2022-08-04T03:03:29;26.90;44.50
44863;DHT22;30597;49.628;10.850;2022-08-04T03:06:14;26.90;44.50
44863;DHT22;30597;49.628;10.850;2022-08-04T03:09:17;26.90;44.50
44863;DHT22;30597;49.628;10.850;2022-08-04T03:14:36;26.90;44.50
44863;DHT22;30597;49.628;10.850;2022-08-04T03:34:36;26.80;44.60
44863;DHT22;30597;49.628;10.850;2022-08-04T03:48:27;26.80;44.70
44863;DHT22;30597;49.628;10.850;2022-08-04T03:54:32;26.80;44.70
44863;DHT22;30597;49.628;10.850;2022-08-04T04:05:20;26.80;44.70
44863;DHT22;30597;49.628;10.850;2022-08-04T04:15:50;26.80;44.70
44863;DHT22;30597;49.628;10.850;2022-08-04T04:27:27;26.80;44.70
44863;DHT22;30597;49.628;10.850;2022-08-04T04:30:11;26.80;44.70
44863;DHT22;30597;49.628;10.850;2022-08-04T04:32:58;26.80;44.70
44863;DHT22;30597;49.628;10.850;2022-08-04T04:35:37;26.80;44.70
44863;DHT22;30597;49.628;10.850;2022-08-04T04:38:26;26.80;44.80
44863;DHT22;30597;49.628;10.850;2022-08-04T04:41:11;26.80;44.60
44863;DHT22;30597;49.628;10.850;2022-08-04T04:46:47;26.80;44.60
44863;DHT22;30597;49.628;10.850;2022-08-04T04:49:36;26.80;44.60
44863;DHT22;30597;49.628;10.850;2022-08-04T04:52:20;26.80;44.60
44863;DHT22;30597;49.628;10.850;2022-08-04T04:55:09;26.80;44.70
44863;DHT22;30597;49.628;10.850;2022-08-04T04:57:38;26.80;44.50
44863;DHT22;30597;49.628;10.850;2022-08-04T05:00:07;26.80;44.60
44863;DHT22;30597;49.628;10.850;2022-08-04T05:06:11;26.80;44.50
44863;DHT22;30597;49.628;10.850;2022-08-04T05:08:48;26.80;44.50
44863;DHT22;30597;49.628;10.850;2022-08-04T05:14:07;26.80;44.60
44863;DHT22;30597;49.628;10.850;2022-08-04T05:16:39;26.80;44.50
44863;DHT22;30597;49.628;10.850;2022-08-04T05:22:10;26.90;44.50
44863;DHT22;30597;49.628;10.850;2022-08-04T05:24:40;26.90;44.50
44863;DHT22;30597;49.628;10.850;2022-08-04T05:27:27;26.90;44.50
44863;DHT22;30597;49.628;10.850;2022-08-04T05:29:58;26.90;44.40
44863;DHT22;30597;49.628;10.850;2022-08-04T05:32:31;26.90;44.50
44863;DHT22;30597;49.628;10.850;2022-08-04T05:35:21;26.90;44.50
44863;DHT22;30597;49.628;10.850;2022-08-04T05:37:53;26.90;44.40
44863;DHT22;30597;49.628;10.850;2022-08-04T05:40:21;26.90;44.40
44863;DHT22;30597;49.628;10.850;2022-08-04T05:42:48;26.90;44.30
44863;DHT22;30597;49.628;10.850;2022-08-04T05:45:15;26.90;44.40
44863;DHT22;30597;49.628;10.850;2022-08-04T05:47:42;26.90;44.40
44863;DHT22;30597;49.628;10.850;2022-08-04T05:50:08;26.90;44.40
44863;DHT22;30597;49.628;10.850;2022-08-04T05:52:35;27.00;44.40
44863;DHT22;30597;49.628;10.850;2022-08-04T05:55:02;27.00;44.30
44863;DHT22;30597;49.628;10.850;2022-08-04T05:57:28;26.90;44.20
44863;DHT22;30597;49.628;10.850;2022-08-04T05:59:57;26.90;44.20
44863;DHT22;30597;49.628;10.850;2022-08-04T06:02:24;27.00;44.30
44863;DHT22;30597;49.628;10.850;2022-08-04T06:04:51;26.90;44.20
44863;DHT22;30597;49.628;10.850;2022-08-04T06:07:17;27.00;44.30
44863;DHT22;30597;49.628;10.850;2022-08-04T06:09:43;27.00;44.20
44863;DHT22;30597;49.628;10.850;2022-08-04T06:12:18;27.00;44.20
44863;DHT22;30597;49.628;10.850;2022-08-04T06:14:48;27.00;44.30
44863;DHT22;30597;49.628;10.850;2022-08-04T06:17:53;27.00;44.20
44863;DHT22;30597;49.628;10.850;2022-08-04T06:20:12;27.00;44.20
44863;DHT22;30597;49.628;10.850;2022-08-04T06:22:40;27.00;44.20
44863;DHT22;30597;49.628;10.850;2022-08-04T06:25:07;27.10;44.30
44863;DHT22;30597;49.628;10.850;2022-08-04T06:27:35;27.10;44.20
44863;DHT22;30597;49.628;10.850;2022-08-04T06:30:01;27.10;44.20
44863;DHT22;30597;49.628;10.850;2022-08-04T06:32:28;27.10;44.80
44863;DHT22;30597;49.628;10.850;2022-08-04T06:35:14;27.10;44.20
44863;DHT22;30597;49.628;10.850;2022-08-04T06:37:41;27.10;44.10
44863;DHT22;30597;49.628;10.850;2022-08-04T06:40:08;27.10;44.10
44863;DHT22;30597;49.628;10.850;2022-08-04T06:42:36;27.10;44.00
44863;DHT22;30597;49.628;10.850;2022-08-04T06:45:02;27.10;44.00
44863;DHT22;30597;49.628;10.850;2022-08-04T06:47:29;27.10;44.00
44863;DHT22;30597;49.628;10.850;2022-08-04T06:49:55;27.20;44.00
44863;DHT22;30597;49.628;10.850;2022-08-04T06:52:21;27.10;43.90
44863;DHT22;30597;49.628;10.850;2022-08-04T06:54:50;27.20;43.90
44863;DHT22;30597;49.628;10.850;2022-08-04T06:57:19;27.20;43.90
44863;DHT22;30597;49.628;10.850;2022-08-04T06:59:49;27.20;43.80
44863;DHT22;30597;49.628;10.850;2022-08-04T07:02:21;27.20;43.80
44863;DHT22;30597;49.628;10.850;2022-08-04T07:04:48;27.20;43.80
44863;DHT22;30597;49.628;10.850;2022-08-04T07:07:14;27.20;43.70
44863;DHT22;30597;49.628;10.850;2022-08-04T07:09:40;27.20;43.70
44863;DHT22;30597;49.628;10.850;2022-08-04T07:12:06;27.20;43.70
44863;DHT22;30597;49.628;10.850;2022-08-04T07:14:32;27.20;43.60
44863;DHT22;30597;49.628;10.850;2022-08-04T07:17:06;27.20;43.70
44863;DHT22;30597;49.628;10.850;2022-08-04T07:19:33;27.30;43.70
44863;DHT22;30597;49.628;10.850;2022-08-04T07:22:03;27.20;43.70
44863;DHT22;30597;49.628;10.850;2022-08-04T07:24:35;27.30;43.70
44863;DHT22;30597;49.628;10.850;2022-08-04T07:27:01;27.30;43.70
44863;DHT22;30597;49.628;10.850;2022-08-04T07:29:28;27.30;43.70
44863;DHT22;30597;49.628;10.850;2022-08-04T07:31:55;27.30;43.70
44863;DHT22;30597;49.628;10.850;2022-08-04T07:34:21;27.30;43.70
44863;DHT22;30597;49.628;10.850;2022-08-04T07:36:50;27.30;43.70
44863;DHT22;30597;49.628;10.850;2022-08-04T07:39:16;27.30;43.70
44863;DHT22;30597;49.628;10.850;2022-08-04T07:41:42;27.30;43.60
44863;DHT22;30597;49.628;10.850;2022-08-04T07:44:08;27.30;43.60
44863;DHT22;30597;49.628;10.850;2022-08-04T07:46:38;27.30;43.70
44863;DHT22;30597;49.628;10.850;2022-08-04T07:49:04;27.30;43.60
44863;DHT22;30597;49.628;10.850;2022-08-04T07:51:31;27.30;43.60
44863;DHT22;30597;49.628;10.850;2022-08-04T07:53:57;27.30;43.60
44863;DHT22;30597;49.628;10.850;2022-08-04T07:56:25;27.40;43.70
44863;DHT22;30597;49.628;10.850;2022-08-04T07:58:50;27.30;44.30
44863;DHT22;30597;49.628;10.850;2022-08-04T08:01:17;27.30;43.60
44863;DHT22;30597;49.628;10.850;2022-08-04T08:03:43;27.30;43.60
44863;DHT22;30597;49.628;10.850;2022-08-04T08:06:08;27.30;43.60
44863;DHT22;30597;49.628;10.850;2022-08-04T08:08:37;27.30;43.60
44863;DHT22;30597;49.628;10.850;2022-08-04T08:11:04;27.30;43.60
44863;DHT22;30597;49.628;10.850;2022-08-04T08:13:30;27.30;43.60
44863;DHT22;30597;49.628;10.850;2022-08-04T08:15:56;27.30;43.60
44863;DHT22;30597;49.628;10.850;2022-08-04T08:18:23;27.30;43.60
44863;DHT22;30597;49.628;10.850;2022-08-04T08:20:49;27.30;43.60
44863;DHT22;30597;49.628;10.850;2022-08-04T08:23:16;27.30;43.60
44863;DHT22;30597;49.628;10.850;2022-08-04T08:25:42;27.30;43.60
44863;DHT22;30597;49.628;10.850;2022-08-04T08:28:08;27.30;43.60
44863;DHT22;30597;49.628;10.850;2022-08-04T08:30:34;27.30;43.70
44863;DHT22;30597;49.628;10.850;2022-08-04T08:33:01;27.30;43.60
44863;DHT22;30597;49.628;10.850;2022-08-04T08:35:33;27.30;43.70
44863;DHT22;30597;49.628;10.850;2022-08-04T08:38:02;27.30;43.70
44863;DHT22;30597;49.628;10.850;2022-08-04T08:40:39;27.30;43.70
44863;DHT22;30597;49.628;10.850;2022-08-04T08:52:07;27.30;43.70
44863;DHT22;30597;49.628;10.850;2022-08-04T08:57:36;27.30;43.80
44863;DHT22;30597;49.628;10.850;2022-08-04T09:00:15;27.20;43.80
44863;DHT22;30597;49.628;10.850;2022-08-04T09:03:09;27.30;43.80
44863;DHT22;30597;49.628;10.850;2022-08-04T09:11:12;27.20;43.80
44863;DHT22;30597;49.628;10.850;2022-08-04T09:13:40;27.30;43.80
44863;DHT22;30597;49.628;10.850;2022-08-04T09:16:13;27.30;43.80
44863;DHT22;30597;49.628;10.850;2022-08-04T09:18:41;27.30;43.80
44863;DHT22;30597;49.628;10.850;2022-08-04T09:21:16;27.30;43.80
44863;DHT22;30597;49.628;10.850;2022-08-04T09:23:55;27.30;43.80
44863;DHT22;30597;49.628;10.850;2022-08-04T09:27:00;27.20;43.80
44863;DHT22;30597;49.628;10.850;2022-08-04T09:29:40;27.30;43.80
44863;DHT22;30597;49.628;10.850;2022-08-04T09:35:32;27.20;43.80
44863;DHT22;30597;49.628;10.850;2022-08-04T09:38:19;27.20;43.80
44863;DHT22;30597;49.628;10.850;2022-08-04T09:47:28;27.20;43.90
44863;DHT22;30597;49.628;10.850;2022-08-04T09:50:01;27.20;43.90
44863;DHT22;30597;49.628;10.850;2022-08-04T09:52:34;27.30;43.90
44863;DHT22;30597;49.628;10.850;2022-08-04T09:55:17;27.20;43.90
44863;DHT22;30597;49.628;10.850;2022-08-04T09:58:13;27.20;43.80
44863;DHT22;30597;49.628;10.850;2022-08-04T10:00:50;27.20;43.90
44863;DHT22;30597;49.628;10.850;2022-08-04T10:03:18;27.30;43.90
44863;DHT22;30597;49.628;10.850;2022-08-04T10:06:06;27.20;43.90
44863;DHT22;30597;49.628;10.850;2022-08-04T10:11:05;27.30;43.80
44863;DHT22;30597;49.628;10.850;2022-08-04T10:16:36;27.20;43.80
44863;DHT22;30597;49.628;10.850;2022-08-04T10:19:27;27.30;43.80
44863;DHT22;30597;49.628;10.850;2022-08-04T10:24:52;27.30;43.80
44863;DHT22;30597;49.628;10.850;2022-08-04T10:27:27;27.30;43.80
44863;DHT22;30597;49.628;10.850;2022-08-04T10:30:00;27.30;43.80
44863;DHT22;30597;49.628;10.850;2022-08-04T10:32:43;27.30;43.80
44863;DHT22;30597;49.628;10.850;2022-08-04T10:35:21;27.30;43.80
44863;DHT22;30597;49.628;10.850;2022-08-04T10:46:04;27.30;44.00
44863;DHT22;30597;49.628;10.850;2022-08-04T10:53:54;27.30;44.00
44863;DHT22;30597;49.628;10.850;2022-08-04T10:56:35;27.30;44.00
44863;DHT22;30597;49.628;10.850;2022-08-04T10:59:10;27.30;44.00
44863;DHT22;30597;49.628;10.850;2022-08-04T11:01:39;27.30;43.90
44863;DHT22;30597;49.628;10.850;2022-08-04T11:04:14;27.30;43.90
44863;DHT22;30597;49.628;10.850;2022-08-04T11:06:42;27.30;43.90
44863;DHT22;30597;49.628;10.850;2022-08-04T11:09:11;27.30;44.00
44863;DHT22;30597;49.628;10.850;2022-08-04T11:11:40;27.20;43.90
44863;DHT22;30597;49.628;10.850;2022-08-04T11:14:16;27.30;43.90
44863;DHT22;30597;49.628;10.850;2022-08-04T11:19:41;27.30;43.90
44863;DHT22;30597;49.628;10.850;2022-08-04T11:22:18;27.30;43.90
44863;DHT22;30597;49.628;10.850;2022-08-04T11:30:25;27.30;43.90
44863;DHT22;30597;49.628;10.850;2022-08-04T11:35:51;27.30;44.00
44863;DHT22;30597;49.628;10.850;2022-08-04T11:38:28;27.30;43.90
44863;DHT22;30597;49.628;10.850;2022-08-04T11:41:09;27.30;44.00
44863;DHT22;30597;49.628;10.850;2022-08-04T11:43:47;27.30;43.90
44863;DHT22;30597;49.628;10.850;2022-08-04T11:46:45;27.30;43.90
44863;DHT22;30597;49.628;10.850;2022-08-04T11:49:35;27.30;43.90
44863;DHT22;30597;49.628;10.850;2022-08-04T11:52:03;27.30;43.90
44863;DHT22;30597;49.628;10.850;2022-08-04T11:54:31;27.30;43.90
44863;DHT22;30597;49.628;10.850;2022-08-04T11:56:58;27.30;43.90
44863;DHT22;30597;49.628;10.850;2022-08-04T11:59:24;27.30;43.90
44863;DHT22;30597;49.628;10.850;2022-08-04T12:05:05;27.30;43.90
44863;DHT22;30597;49.628;10.850;2022-08-04T12:07:44;27.30;43.80
44863;DHT22;30597;49.628;10.850;2022-08-04T12:16:17;27.30;43.90
44863;DHT22;30597;49.628;10.850;2022-08-04T12:18:50;27.30;43.90
44863;DHT22;30597;49.628;10.850;2022-08-04T12:21:24;27.30;43.90
44863;DHT22;30597;49.628;10.850;2022-08-04T12:23:56;27.30;43.90
44863;DHT22;30597;49.628;10.850;2022-08-04T12:26:27;27.30;43.90
44863;DHT22;30597;49.628;10.850;2022-08-04T12:28:59;27.30;43.90
44863;DHT22;30597;49.628;10.850;2022-08-04T12:34:31;27.30;43.90
44863;DHT22;30597;49.628;10.850;2022-08-04T12:37:04;27.30;43.90
44863;DHT22;30597;49.628;10.850;2022-08-04T12:39:31;27.40;44.00
44863;DHT22;30597;49.628;10.850;2022-08-04T12:42:23;27.40;44.00
44863;DHT22;30597;49.628;10.850;2022-08-04T12:44:50;27.30;43.80
44863;DHT22;30597;49.628;10.850;2022-08-04T12:47:22;27.40;43.90
44863;DHT22;30597;49.628;10.850;2022-08-04T12:49:49;27.30;43.80
44863;DHT22;30597;49.628;10.850;2022-08-04T12:52:16;27.30;43.80
44863;DHT22;30597;49.628;10.850;2022-08-04T12:54:45;27.40;43.90
44863;DHT22;30597;49.628;10.850;2022-08-04T12:57:13;27.40;43.90
44863;DHT22;30597;49.628;10.850;2022-08-04T12:59:42;27.40;43.80
44863;DHT22;30597;49.628;10.850;2022-08-04T13:02:32;27.40;43.80
44863;DHT22;30597;49.628;10.850;2022-08-04T13:05:04;27.40;43.80
44863;DHT22;30597;49.628;10.850;2022-08-04T13:07:39;27.40;43.80
44863;DHT22;30597;49.628;10.850;2022-08-04T13:10:14;27.40;43.80
44863;DHT22;30597;49.628;10.850;2022-08-04T13:12:41;27.40;43.80
44863;DHT22;30597;49.628;10.850;2022-08-04T13:15:14;27.40;43.80
44863;DHT22;30597;49.628;10.850;2022-08-04T13:17:49;27.40;43.80
44863;DHT22;30597;49.628;10.850;2022-08-04T13:20:19;27.40;43.80
44863;DHT22;30597;49.628;10.850;2022-08-04T13:22:48;27.40;43.80
44863;DHT22;30597;49.628;10.850;2022-08-04T13:25:13;27.40;43.80
44863;DHT22;30597;49.628;10.850;2022-08-04T13:27:40;27.40;43.80
44863;DHT22;30597;49.628;10.850;2022-08-04T13:30:11;27.40;43.70
44863;DHT22;30597;49.628;10.850;2022-08-04T13:32:39;27.40;43.70
44863;DHT22;30597;49.628;10.850;2022-08-04T13:35:07;27.40;43.70
44863;DHT22;30597;49.628;10.850;2022-08-04T13:37:35;27.40;43.70
44863;DHT22;30597;49.628;10.850;2022-08-04T13:40:06;27.40;43.70
44863;DHT22;30597;49.628;10.850;2022-08-04T13:42:34;27.40;43.70
44863;DHT22;30597;49.628;10.850;2022-08-04T13:45:05;27.40;43.70
44863;DHT22;30597;49.628;10.850;2022-08-04T13:47:34;27.40;43.70
44863;DHT22;30597;49.628;10.850;2022-08-04T13:50:12;27.40;43.70
44863;DHT22;30597;49.628;10.850;2022-08-04T13:52:40;27.40;43.70
44863;DHT22;30597;49.628;10.850;2022-08-04T13:55:08;27.40;43.70
44863;DHT22;30597;49.628;10.850;2022-08-04T13:57:43;27.40;43.70
44863;DHT22;30597;49.628;10.850;2022-08-04T14:00:10;27.40;43.70
44863;DHT22;30597;49.628;10.850;2022-08-04T14:02:55;27.50;43.70
44863;DHT22;30597;49.628;10.850;2022-08-04T14:05:26;27.40;43.70
44863;DHT22;30597;49.628;10.850;2022-08-04T14:10:54;27.40;43.70
44863;DHT22;30597;49.628;10.850;2022-08-04T14:13:31;27.50;43.70
44863;DHT22;30597;49.628;10.850;2022-08-04T14:15:57;27.40;43.70
44863;DHT22;30597;49.628;10.850;2022-08-04T14:18:25;27.50;43.70
44863;DHT22;30597;49.628;10.850;2022-08-04T14:23:28;27.50;43.70
44863;DHT22;30597;49.628;10.850;2022-08-04T14:25:54;27.50;43.60
44863;DHT22;30597;49.628;10.850;2022-08-04T14:28:30;27.50;43.60
44863;DHT22;30597;49.628;10.850;2022-08-04T14:31:17;27.50;43.60
44863;DHT22;30597;49.628;10.850;2022-08-04T14:33:44;27.50;43.60
44863;DHT22;30597;49.628;10.850;2022-08-04T14:36:13;27.50;43.60
44863;DHT22;30597;49.628;10.850;2022-08-04T14:38:48;27.50;43.60
44863;DHT22;30597;49.628;10.850;2022-08-04T14:41:18;27.50;43.60
44863;DHT22;30597;49.628;10.850;2022-08-04T14:44:01;27.50;43.40
44863;DHT22;30597;49.628;10.850;2022-08-04T14:46:31;27.50;43.60
44863;DHT22;30597;49.628;10.850;2022-08-04T14:49:12;27.50;43.50
44863;DHT22;30597;49.628;10.850;2022-08-04T14:51:39;27.50;43.30
44863;DHT22;30597;49.628;10.850;2022-08-04T14:54:13;27.50;43.60
44863;DHT22;30597;49.628;10.850;2022-08-04T14:56:41;27.50;43.60
44863;DHT22;30597;49.628;10.850;2022-08-04T14:59:18;27.50;43.60
44863;DHT22;30597;49.628;10.850;2022-08-04T15:01:59;27.60;43.60
44863;DHT22;30597;49.628;10.850;2022-08-04T15:04:33;27.50;43.60
44863;DHT22;30597;49.628;10.850;2022-08-04T15:07:22;27.60;43.60
44863;DHT22;30597;49.628;10.850;2022-08-04T15:09:59;27.50;43.50
44863;DHT22;30597;49.628;10.850;2022-08-04T15:12:52;27.50;43.40
44863;DHT22;30597;49.628;10.850;2022-08-04T15:15:17;27.50;43.50
44863;DHT22;30597;49.628;10.850;2022-08-04T15:17:43;27.50;43.50
44863;DHT22;30597;49.628;10.850;2022-08-04T15:20:12;27.60;43.50
44863;DHT22;30597;49.628;10.850;2022-08-04T15:22:37;27.60;43.50
44863;DHT22;30597;49.628;10.850;2022-08-04T15:25:04;27.60;43.50
44863;DHT22;30597;49.628;10.850;2022-08-04T15:27:33;27.60;43.50
44863;DHT22;30597;49.628;10.850;2022-08-04T15:30:03;27.60;43.50
44863;DHT22;30597;49.628;10.850;2022-08-04T15:32:40;27.60;43.50
44863;DHT22;30597;49.628;10.850;2022-08-04T15:35:10;27.60;43.40
44863;DHT22;30597;49.628;10.850;2022-08-04T15:37:48;27.60;43.50
44863;DHT22;30597;49.628;10.850;2022-08-04T15:40:55;27.60;43.50
44863;DHT22;30597;49.628;10.850;2022-08-04T15:46:04;27.60;43.40
44863;DHT22;30597;49.628;10.850;2022-08-04T15:48:31;27.70;43.40
44863;DHT22;30597;49.628;10.850;2022-08-04T15:53:23;27.70;43.30
44863;DHT22;30597;49.628;10.850;2022-08-04T15:55:49;27.70;43.30
44863;DHT22;30597;49.628;10.850;2022-08-04T15:58:17;27.80;43.30
44863;DHT22;30597;49.628;10.850;2022-08-04T16:05:59;27.90;43.10
44863;DHT22;30597;49.628;10.850;2022-08-04T16:08:26;27.90;43.00
44863;DHT22;30597;49.628;10.850;2022-08-04T16:10:52;28.00;42.90
44863;DHT22;30597;49.628;10.850;2022-08-04T16:13:22;28.00;42.90
44863;DHT22;30597;49.628;10.850;2022-08-04T16:15:52;28.00;42.80
44863;DHT22;30597;49.628;10.850;2022-08-04T16:20:58;28.10;42.70
44863;DHT22;30597;49.628;10.850;2022-08-04T16:26:07;28.20;42.50
44863;DHT22;30597;49.628;10.850;2022-08-04T16:28:39;28.30;42.50
44863;DHT22;30597;49.628;10.850;2022-08-04T16:31:06;28.30;42.40
44863;DHT22;30597;49.628;10.850;2022-08-04T16:33:33;28.30;42.30
44863;DHT22;30597;49.628;10.850;2022-08-04T16:36:00;28.40;42.20
44863;DHT22;30597;49.628;10.850;2022-08-04T16:38:26;28.40;42.10
44863;DHT22;30597;49.628;10.850;2022-08-04T16:40:58;28.40;42.00
44863;DHT22;30597;49.628;10.850;2022-08-04T16:43:31;28.40;42.00
44863;DHT22;30597;49.628;10.850;2022-08-04T16:45:58;28.50;41.90
44863;DHT22;30597;49.628;10.850;2022-08-04T16:48:31;28.50;41.90
44863;DHT22;30597;49.628;10.850;2022-08-04T16:51:03;28.50;41.90
44863;DHT22;30597;49.628;10.850;2022-08-04T16:53:39;28.60;41.90
44863;DHT22;30597;49.628;10.850;2022-08-04T16:56:11;28.60;41.80
44863;DHT22;30597;49.628;10.850;2022-08-04T16:58:38;28.60;41.80
44863;DHT22;30597;49.628;10.850;2022-08-04T17:01:09;28.60;41.70
44863;DHT22;30597;49.628;10.850;2022-08-04T17:03:36;28.70;41.70
44863;DHT22;30597;49.628;10.850;2022-08-04T17:06:09;28.70;41.70
44863;DHT22;30597;49.628;10.850;2022-08-04T17:08:35;28.60;41.50
44863;DHT22;30597;49.628;10.850;2022-08-04T17:11:03;28.70;41.50
44863;DHT22;30597;49.628;10.850;2022-08-04T17:13:34;28.70;41.50
44863;DHT22;30597;49.628;10.850;2022-08-04T17:16:03;28.70;41.50
44863;DHT22;30597;49.628;10.850;2022-08-04T17:18:37;28.70;41.50
44863;DHT22;30597;49.628;10.850;2022-08-04T17:21:10;28.60;41.70
44863;DHT22;30597;49.628;10.850;2022-08-04T17:23:41;28.40;42.00
44863;DHT22;30597;49.628;10.850;2022-08-04T17:26:13;28.30;42.20
44863;DHT22;30597;49.628;10.850;2022-08-04T17:28:40;28.20;42.30
44863;DHT22;30597;49.628;10.850;2022-08-04T17:31:09;28.40;42.30
44863;DHT22;30597;49.628;10.850;2022-08-04T17:33:36;28.40;42.30
44863;DHT22;30597;49.628;10.850;2022-08-04T17:36:03;28.30;42.30
44863;DHT22;30597;49.628;10.850;2022-08-04T17:38:44;28.30;42.50
44863;DHT22;30597;49.628;10.850;2022-08-04T17:41:12;28.30;42.60
44863;DHT22;30597;49.628;10.850;2022-08-04T17:46:19;28.20;42.70
44863;DHT22;30597;49.628;10.850;2022-08-04T17:49:27;28.10;42.60
44863;DHT22;30597;49.628;10.850;2022-08-04T17:51:49;28.10;42.70
44863;DHT22;30597;49.628;10.850;2022-08-04T17:54:20;28.10;42.70
44863;DHT22;30597;49.628;10.850;2022-08-04T17:56:50;28.10;42.80
44863;DHT22;30597;49.628;10.850;2022-08-04T17:59:43;28.10;42.90
44863;DHT22;30597;49.628;10.850;2022-08-04T18:02:09;28.10;42.90
44863;DHT22;30597;49.628;10.850;2022-08-04T18:07:21;28.00;42.90
44863;DHT22;30597;49.628;10.850;2022-08-04T18:12:34;28.00;43.00
44863;DHT22;30597;49.628;10.850;2022-08-04T18:15:21;28.00;43.00
44863;DHT22;30597;49.628;10.850;2022-08-04T18:17:49;28.00;43.00
44863;DHT22;30597;49.628;10.850;2022-08-04T18:20:19;28.00;42.90
44863;DHT22;30597;49.628;10.850;2022-08-04T18:22:46;28.00;43.00
44863;DHT22;30597;49.628;10.850;2022-08-04T18:25:14;28.00;43.00
44863;DHT22;30597;49.628;10.850;2022-08-04T18:27:48;28.00;43.00
44863;DHT22;30597;49.628;10.850;2022-08-04T18:30:16;28.10;43.10
44863;DHT22;30597;49.628;10.850;2022-08-04T18:32:42;28.00;43.00
44863;DHT22;30597;49.628;10.850;2022-08-04T18:35:07;28.00;43.00
44863;DHT22;30597;49.628;10.850;2022-08-04T18:37:37;28.00;43.00
44863;DHT22;30597;49.628;10.850;2022-08-04T18:40:05;28.00;43.00
44863;DHT22;30597;49.628;10.850;2022-08-04T18:42:31;28.00;43.10
44863;DHT22;30597;49.628;10.850;2022-08-04T18:44:56;28.00;43.00
44863;DHT22;30597;49.628;10.850;2022-08-04T18:47:23;28.00;43.10
44863;DHT22;30597;49.628;10.850;2022-08-04T18:49:50;28.00;43.10
44863;DHT22;30597;49.628;10.850;2022-08-04T18:52:15;28.00;43.10
44863;DHT22;30597;49.628;10.850;2022-08-04T18:54:41;28.00;43.10
44863;DHT22;30597;49.628;10.850;2022-08-04T18:57:07;28.00;43.10
44863;DHT22;30597;49.628;10.850;2022-08-04T18:59:32;28.00;43.10
44863;DHT22;30597;49.628;10.850;2022-08-04T19:01:58;28.00;43.10
44863;DHT22;30597;49.628;10.850;2022-08-04T19:04:23;28.00;43.10
44863;DHT22;30597;49.628;10.850;2022-08-04T19:06:49;28.10;43.20
44863;DHT22;30597;49.628;10.850;2022-08-04T19:09:14;28.10;43.20